Time;durP1;ratioP1;P1;durP2;ratioP2;P2;SDS_P1;SDS_P2;PMS_P1;PMS_P2;Temp;Humidity;BMP_temperature;BMP_pressure;BME280_temperature;BME280_humidity;BME280_pressure;Samples;Min_cycle;Max_cycle;Signal;HPM_P1;HPM_P2
2022/10/11 00:00:30;;;;;;;11.12;5.12;;;;;;;7.12;65.97;101384.80;1702027;84;21318;-65
2022/10/11 00:02:57;;;;;;;8.90;5.30;;;;;;;7.10;65.98;101382.73;1703050;84;21075;-65
2022/10/11 00:05:24;;;;;;;9.98;5.00;;;;;;;7.04;66.00;101372.11;1696644;84;21067;-65
2022/10/11 00:07:50;;;;;;;8.43;3.02;;;;;;;6.99;65.99;101377.17;1698684;84;21160;-65
2022/10/11 00:10:18;;;;;;;10.48;5.90;;;;;;;6.94;65.88;101373.93;1687485;83;21611;-65
2022/10/11 00:12:45;;;;;;;10.28;5.72;;;;;;;6.84;66.05;101382.24;1736965;82;21486;-65
2022/10/11 00:15:14;;;;;;;11.55;6.10;;;;;;;6.73;66.40;101376.67;1731099;82;21072;-66
2022/10/11 00:17:40;;;;;;;11.68;6.12;;;;;;;6.65;66.64;101371.80;1745287;82;21091;-65
2022/10/11 00:20:10;;;;;;;9.85;6.08;;;;;;;6.50;66.66;101369.44;1714376;82;21825;-65
2022/10/11 00:22:37;;;;;;;6.40;2.40;;;;;;;6.33;66.79;101374.16;1774530;79;21042;-65
2022/10/11 00:25:06;;;;;;;11.12;5.45;;;;;;;6.23;66.99;101373.36;1789677;79;21113;-65
2022/10/11 00:27:33;;;;;;;11.33;6.22;;;;;;;6.23;67.02;101372.89;1750523;82;21515;-65
2022/10/11 00:30:00;;;;;;;8.25;3.30;;;;;;;6.21;67.08;101368.67;1759246;79;21332;-65
2022/10/11 00:32:27;;;;;;;11.03;6.45;;;;;;;6.16;67.27;101364.11;1781395;80;21239;-65
2022/10/11 00:34:54;;;;;;;12.20;6.22;;;;;;;6.11;67.44;101364.31;1761784;79;21030;-65
2022/10/11 00:37:21;;;;;;;11.57;3.80;;;;;;;6.05;67.58;101361.53;1804486;79;21026;-65
2022/10/11 00:39:48;;;;;;;10.25;6.05;;;;;;;6.01;67.75;101362.58;1774597;79;21126;-65
2022/10/11 00:42:17;;;;;;;12.03;6.55;;;;;;;5.95;67.93;101362.81;1773181;79;21050;-65
2022/10/11 00:44:47;;;;;;;11.38;6.28;;;;;;;5.94;68.04;101361.97;1715139;82;21745;-65
2022/10/11 00:47:20;;;;;;;13.30;6.75;;;;;;;6.01;67.99;101361.27;1700748;83;21089;-65
2022/10/11 00:49:58;;;;;;;7.97;3.72;;;;;;;6.06;68.01;101357.15;1710167;82;21093;-65
2022/10/11 00:52:31;;;;;;;13.13;7.28;;;;;;;6.02;68.06;101357.75;1697234;83;21069;-65
2022/10/11 00:55:02;;;;;;;12.07;6.83;;;;;;;6.00;68.20;101356.98;1708122;81;21786;-65
2022/10/11 00:57:30;;;;;;;16.27;3.00;;;;;;;5.97;68.27;101358.86;1739333;82;21806;-65
2022/10/11 00:59:57;;;;;;;14.40;6.92;;;;;;;5.94;68.40;101359.83;1697937;83;21020;-65
2022/10/11 01:02:23;;;;;;;7.37;3.10;;;;;;;5.92;68.29;101349.91;1735613;80;21070;-65
2022/10/11 01:04:50;;;;;;;8.50;3.35;;;;;;;5.94;68.07;101357.22;1747423;82;21090;-65
2022/10/11 01:07:18;;;;;;;16.35;7.30;;;;;;;5.93;68.03;101356.38;1734725;82;21636;-66
2022/10/11 01:09:46;;;;;;;13.68;6.90;;;;;;;5.90;68.26;101357.81;1750527;80;21253;-65
2022/10/11 01:12:19;;;;;;;7.00;2.67;;;;;;;5.87;68.30;101357.11;1759967;80;21051;-65
2022/10/11 01:15:12;;;;;;;12.75;7.50;;;;;;;5.82;68.44;101354.70;1772932;79;21054;-65
2022/10/11 01:18:05;;;;;;;11.05;6.70;;;;;;;5.74;68.63;101355.02;1775389;79;21121;-65
2022/10/11 01:21:00;;;;;;;7.05;3.22;;;;;;;5.72;68.83;101356.86;1771942;78;21013;-63
2022/10/11 01:23:54;;;;;;;10.13;3.65;;;;;;;5.78;68.98;101359.64;1775096;79;21821;-64
2022/10/11 01:26:47;;;;;;;12.25;6.90;;;;;;;5.80;69.17;101364.37;1780859;80;21030;-65
2022/10/11 01:29:46;;;;;;;7.22;2.70;;;;;;;5.77;69.08;101362.73;1758212;80;21156;-64
2022/10/11 01:32:30;;;;;;;12.33;7.33;;;;;;;5.71;69.17;101366.91;1777844;79;21002;-65
2022/10/11 01:35:11;;;;;;;10.38;3.65;;;;;;;5.67;69.29;101374.96;1750581;82;21582;-64
2022/10/11 01:37:44;;;;;;;6.50;3.22;;;;;;;5.67;69.33;101373.66;1750659;80;21239;-65
2022/10/11 01:40:14;;;;;;;7.83;3.15;;;;;;;5.70;69.25;101364.36;1790196;79;21031;-65
2022/10/11 01:42:41;;;;;;;12.15;7.37;;;;;;;5.71;69.38;101363.45;1810438;79;21030;-64
2022/10/11 01:45:14;;;;;;;11.63;6.70;;;;;;;5.67;69.45;101364.05;1750600;82;21547;-65
2022/10/11 01:47:41;;;;;;;10.43;7.28;;;;;;;5.61;69.58;101359.09;1765124;79;21093;-65
2022/10/11 01:50:30;;;;;;;8.30;3.50;;;;;;;5.53;69.78;101361.17;1793137;79;21213;-65
2022/10/11 01:52:56;;;;;;;7.40;3.12;;;;;;;5.48;69.98;101364.44;1767977;79;21039;-65
2022/10/11 01:55:29;;;;;;;12.00;8.08;;;;;;;5.47;69.92;101363.61;1790791;79;21038;-65
2022/10/11 01:58:42;;;;;;;9.73;3.95;;;;;;;5.42;69.99;101373.86;1714234;82;21019;-65
2022/10/11 02:01:35;;;;;;;11.45;4.33;;;;;;;5.31;70.27;101375.17;1752587;79;21066;-64
2022/10/11 02:04:19;;;;;;;12.53;7.87;;;;;;;5.18;70.50;101376.59;1789887;79;21178;-64
2022/10/11 02:07:15;;;;;;;9.63;4.35;;;;;;;5.07;70.66;101374.41;1750328;82;21043;-64
2022/10/11 02:09:47;;;;;;;8.78;3.87;;;;;;;5.03;70.69;101377.61;1806588;79;21046;-64
2022/10/11 02:12:19;;;;;;;13.70;8.18;;;;;;;5.06;70.55;101377.08;1779508;79;21038;-64
2022/10/11 02:14:47;;;;;;;7.87;3.40;;;;;;;5.05;70.60;101381.92;1810503;79;21968;-64
2022/10/11 02:17:19;;;;;;;16.20;7.85;;;;;;;5.03;70.78;101384.59;1799005;79;21157;-64
2022/10/11 02:19:49;;;;;;;7.70;3.15;;;;;;;4.97;70.96;101382.22;1768880;79;21011;-64
2022/10/11 02:22:32;;;;;;;12.03;7.55;;;;;;;4.92;71.27;101383.70;1768253;79;21082;-64
2022/10/11 02:25:00;;;;;;;6.70;3.22;;;;;;;4.90;71.37;101383.39;1772702;79;21077;-64
2022/10/11 02:27:30;;;;;;;9.18;3.22;;;;;;;4.93;71.29;101377.59;1760749;80;22408;-64
2022/10/11 02:29:57;;;;;;;13.10;7.92;;;;;;;4.96;71.17;101370.95;1770546;80;21245;-64
2022/10/11 02:32:23;;;;;;;8.73;4.12;;;;;;;4.95;71.19;101378.38;1749126;80;21042;-64
2022/10/11 02:34:54;;;;;;;9.33;3.47;;;;;;;4.94;71.22;101376.69;1759329;79;21036;-64
2022/10/11 02:37:41;;;;;;;12.35;7.20;;;;;;;4.92;71.09;101372.44;1757760;81;21060;-64
2022/10/11 02:40:28;;;;;;;8.65;3.15;;;;;;;4.88;71.09;101375.63;1761293;79;21008;-64
2022/10/11 02:43:05;;;;;;;8.70;3.87;;;;;;;4.89;71.13;101374.70;1760898;79;22337;-64
2022/10/11 02:45:43;;;;;;;10.70;3.50;;;;;;;4.99;71.07;101372.14;1722513;82;21135;-64
2022/10/11 02:48:10;;;;;;;13.40;6.97;;;;;;;5.07;71.04;101371.80;1760894;79;21711;-64
2022/10/11 02:50:39;;;;;;;8.13;3.12;;;;;;;5.07;71.04;101368.35;1710552;81;21031;-64
2022/10/11 02:53:07;;;;;;;9.25;3.30;;;;;;;5.06;71.01;101374.04;1749761;79;21091;-64
2022/10/11 02:55:35;;;;;;;14.47;8.00;;;;;;;5.03;70.97;101375.00;1807052;79;21775;-64
2022/10/11 02:58:02;;;;;;;7.70;3.22;;;;;;;4.97;70.91;101380.45;1805701;79;20960;-64
2022/10/11 03:00:29;;;;;;;10.85;6.90;;;;;;;4.95;70.81;101377.06;1773199;80;21059;-64
2022/10/11 03:02:56;;;;;;;8.78;3.37;;;;;;;4.98;70.77;101373.50;1759059;80;21014;-64
2022/10/11 03:05:22;;;;;;;11.80;6.80;;;;;;;4.98;70.86;101378.25;1755468;80;21055;-64
2022/10/11 03:07:49;;;;;;;13.93;4.25;;;;;;;4.96;71.10;101371.39;1773586;79;21252;-65
2022/10/11 03:10:15;;;;;;;8.05;3.60;;;;;;;4.93;71.08;101376.29;1757713;80;21037;-64
2022/10/11 03:12:43;;;;;;;8.38;4.28;;;;;;;4.87;71.14;101382.20;1759292;79;21033;-64
2022/10/11 03:15:10;;;;;;;11.65;6.65;;;;;;;4.79;71.34;101375.55;1765786;80;21035;-64
2022/10/11 03:17:38;;;;;;;9.80;3.83;;;;;;;4.81;71.35;101372.41;1762198;80;21022;-64
2022/10/11 03:20:06;;;;;;;11.08;6.75;;;;;;;4.89;71.33;101373.86;1764706;79;21766;-64
2022/10/11 03:22:33;;;;;;;9.40;3.50;;;;;;;4.91;71.08;101374.20;1763066;80;21062;-64
2022/10/11 03:25:00;;;;;;;12.85;6.92;;;;;;;4.84;70.98;101368.81;1766872;79;21524;-65
2022/10/11 03:27:27;;;;;;;7.60;3.58;;;;;;;4.77;71.03;101371.29;1771716;80;21512;-64
2022/10/11 03:29:54;;;;;;;7.72;3.35;;;;;;;4.70;71.10;101373.75;1760817;79;21556;-64
2022/10/11 03:32:21;;;;;;;10.95;6.80;;;;;;;4.61;71.30;101375.81;1766091;80;21892;-64
2022/10/11 03:34:47;;;;;;;10.13;5.12;;;;;;;4.62;71.48;101375.34;1769334;80;21027;-64
2022/10/11 03:37:14;;;;;;;10.60;3.27;;;;;;;4.67;71.42;101376.02;1759677;80;21063;-64
2022/10/11 03:39:42;;;;;;;10.45;6.65;;;;;;;4.72;71.45;101373.23;1773994;79;21077;-64
2022/10/11 03:42:08;;;;;;;9.28;2.83;;;;;;;4.72;71.54;101380.59;1769032;80;21534;-64
2022/10/11 03:44:35;;;;;;;8.63;3.95;;;;;;;4.70;71.66;101377.66;1769313;79;21809;-64
2022/10/11 03:47:02;;;;;;;13.28;7.53;;;;;;;4.68;71.74;101378.19;1769690;79;21598;-64
2022/10/11 03:49:29;;;;;;;8.98;3.55;;;;;;;4.65;71.73;101380.45;1775812;79;21014;-64
2022/10/11 03:51:56;;;;;;;13.90;6.60;;;;;;;4.69;71.49;101378.56;1755855;80;20980;-64
2022/10/11 03:54:22;;;;;;;6.95;3.37;;;;;;;4.71;71.24;101384.12;1752533;79;21011;-64
2022/10/11 03:56:49;;;;;;;13.55;4.17;;;;;;;4.68;71.34;101378.19;1776821;80;21321;-64
2022/10/11 03:59:15;;;;;;;10.65;6.35;;;;;;;4.63;71.52;101376.59;1761795;79;21036;-64
2022/10/11 04:01:42;;;;;;;8.20;3.22;;;;;;;4.57;71.64;101376.85;1749363;80;21053;-64
2022/10/11 04:04:09;;;;;;;6.15;2.42;;;;;;;4.52;71.85;101376.16;1786964;79;21078;-64
2022/10/11 04:06:37;;;;;;;10.50;6.03;;;;;;;4.53;71.88;101375.25;1760237;80;21094;-64
2022/10/11 04:09:03;;;;;;;13.88;3.45;;;;;;;4.54;71.85;101380.88;1766629;79;21301;-64
2022/10/11 04:11:32;;;;;;;11.30;3.87;;;;;;;4.49;72.05;101378.03;1761259;79;20999;-64
2022/10/11 04:13:58;;;;;;;11.70;6.45;;;;;;;4.45;72.34;101375.58;1768606;80;22341;-64
2022/10/11 04:16:25;;;;;;;7.95;3.17;;;;;;;4.41;72.51;101374.44;1758906;80;21042;-64
2022/10/11 04:18:51;;;;;;;9.83;3.25;;;;;;;4.41;72.36;101380.95;1767647;79;20984;-64
2022/10/11 04:21:18;;;;;;;9.70;6.33;;;;;;;4.45;72.29;101386.43;1765836;79;21116;-64
2022/10/11 04:28:01;;;;;;;6.70;2.35;;;;;;;4.44;72.42;101379.53;1742387;82;21541;-64
2022/10/11 04:30:46;;;;;;;8.38;2.37;;;;;;;4.39;72.68;101386.69;1743736;80;21529;-64
2022/10/11 04:33:12;;;;;;;7.45;2.77;;;;;;;4.35;72.65;101389.00;1744729;80;21541;-64
2022/10/11 04:35:39;;;;;;;6.30;2.55;;;;;;;4.33;72.43;101390.81;1768343;79;22063;-64
2022/10/11 04:38:06;;;;;;;11.38;6.40;;;;;;;4.35;72.17;101389.00;1760240;79;21130;-65
2022/10/11 04:40:33;;;;;;;6.47;2.80;;;;;;;4.33;72.19;101391.66;1758051;80;21098;-65
2022/10/11 04:43:00;;;;;;;6.95;2.60;;;;;;;4.31;72.27;101397.84;1757251;80;21043;-63
2022/10/11 04:45:27;;;;;;;12.15;5.75;;;;;;;4.27;72.44;101407.54;1767442;79;21025;-63
2022/10/11 04:47:54;;;;;;;6.03;2.65;;;;;;;4.24;72.62;101404.58;1754550;80;21129;-63
2022/10/11 04:50:20;;;;;;;6.35;2.27;;;;;;;4.26;72.76;101404.53;1767453;79;21509;-63
2022/10/11 04:52:47;;;;;;;8.35;2.98;;;;;;;4.33;72.81;101398.17;1753271;80;21110;-63
2022/10/11 04:55:14;;;;;;;11.60;5.87;;;;;;;4.40;72.84;101406.61;1759804;79;21053;-63
2022/10/11 04:57:41;;;;;;;9.45;3.05;;;;;;;4.39;72.83;101401.02;1757203;80;21493;-63
2022/10/11 05:00:10;;;;;;;6.35;2.77;;;;;;;4.38;72.82;101402.75;1762657;79;21540;-63
2022/10/11 05:02:38;;;;;;;8.28;2.25;;;;;;;4.36;72.81;101407.18;1766103;80;21029;-64
2022/10/11 05:05:06;;;;;;;6.60;2.37;;;;;;;4.35;72.74;101406.77;1728919;82;20985;-64
2022/10/11 05:07:34;;;;;;;8.18;2.77;;;;;;;4.43;72.67;101407.80;1760392;80;21087;-64
2022/10/11 05:10:01;;;;;;;9.28;4.97;;;;;;;4.49;72.62;101408.01;1766731;79;21031;-64
2022/10/11 05:12:29;;;;;;;6.37;2.33;;;;;;;4.50;72.70;101411.02;1759308;79;21040;-64
2022/10/11 05:14:56;;;;;;;9.00;5.20;;;;;;;4.53;72.91;101405.70;1766633;79;21015;-64
2022/10/11 05:17:24;;;;;;;6.15;2.70;;;;;;;4.56;73.12;101406.42;1785901;79;21075;-64
2022/10/11 05:19:50;;;;;;;5.90;2.12;;;;;;;4.63;73.11;101404.42;1764285;79;21039;-64
2022/10/11 05:22:16;;;;;;;7.60;3.37;;;;;;;4.76;73.08;101406.95;1757320;80;21196;-63
2022/10/11 05:24:43;;;;;;;9.58;5.00;;;;;;;4.90;73.04;101405.56;1763936;79;21298;-64
2022/10/11 05:27:10;;;;;;;5.58;1.92;;;;;;;4.94;73.12;101404.08;1759692;80;21591;-64
2022/10/11 05:29:38;;;;;;;7.92;4.28;;;;;;;5.00;73.21;101407.73;1769458;79;21047;-64
2022/10/11 05:32:04;;;;;;;6.20;2.30;;;;;;;5.06;73.19;101404.47;1760003;79;21075;-64
2022/10/11 05:34:32;;;;;;;8.18;4.50;;;;;;;5.16;73.21;101404.05;1761258;79;21022;-63
2022/10/11 05:36:58;;;;;;;9.10;4.83;;;;;;;5.30;73.01;101398.72;1773198;80;22825;-64
2022/10/11 05:39:25;;;;;;;5.50;2.20;;;;;;;5.43;72.89;101397.73;1754833;79;21082;-64
2022/10/11 05:41:53;;;;;;;10.75;4.97;;;;;;;5.51;72.94;101405.63;1781716;79;21008;-64
2022/10/11 05:44:20;;;;;;;6.47;1.77;;;;;;;5.59;72.93;101395.70;1761462;80;20980;-64
2022/10/11 05:46:46;;;;;;;8.28;4.60;;;;;;;5.68;72.92;101400.14;1762602;79;21110;-64
2022/10/11 05:49:13;;;;;;;8.85;4.45;;;;;;;5.79;72.70;101402.30;1760440;80;21243;-64
2022/10/11 05:51:39;;;;;;;5.22;1.95;;;;;;;5.93;72.44;101395.56;1751305;80;21000;-64
2022/10/11 05:54:06;;;;;;;7.55;4.00;;;;;;;6.09;72.41;101402.74;1761186;80;21571;-64
2022/10/11 05:56:33;;;;;;;8.78;4.50;;;;;;;6.22;72.26;101407.80;1754812;79;21086;-64
2022/10/11 05:58:59;;;;;;;7.50;4.72;;;;;;;6.37;72.01;101402.78;1761024;80;21101;-64
2022/10/11 06:01:26;;;;;;;8.58;4.28;;;;;;;6.49;71.69;101403.07;1763857;80;21243;-64
2022/10/11 06:03:53;;;;;;;5.35;2.02;;;;;;;6.63;71.26;101406.80;1761881;79;20997;-64
2022/10/11 06:06:21;;;;;;;10.48;4.60;;;;;;;6.76;70.75;101407.92;1758246;80;21032;-65
2022/10/11 06:08:47;;;;;;;8.90;5.25;;;;;;;6.86;70.37;101410.48;1754021;80;21019;-65
2022/10/11 06:11:21;;;;;;;9.53;4.25;;;;;;;6.90;70.20;101415.57;1761726;79;21635;-66
2022/10/11 06:13:49;;;;;;;9.85;4.47;;;;;;;6.94;70.07;101410.56;1762159;80;21516;-65
2022/10/11 06:16:16;;;;;;;8.70;4.45;;;;;;;6.97;69.98;101411.26;1764750;79;21053;-64
2022/10/11 06:18:44;;;;;;;8.40;3.90;;;;;;;7.05;69.97;101413.52;1762249;79;21048;-65
2022/10/11 06:21:12;;;;;;;9.95;4.72;;;;;;;7.20;69.74;101416.69;1757339;79;21008;-64
2022/10/11 06:23:39;;;;;;;5.80;1.85;;;;;;;7.35;69.64;101405.08;1704082;82;21087;-64
2022/10/11 06:26:06;;;;;;;8.18;4.12;;;;;;;7.47;69.47;101408.38;1765064;79;21416;-65
2022/10/11 06:28:34;;;;;;;7.62;2.15;;;;;;;7.58;69.25;101410.00;1754430;80;21952;-65
2022/10/11 06:31:03;;;;;;;8.50;4.10;;;;;;;7.67;69.22;101405.22;1752411;79;21095;-65
2022/10/11 06:33:32;;;;;;;9.68;3.90;;;;;;;7.76;68.92;101407.34;1756048;80;21011;-65
2022/10/11 06:36:00;;;;;;;8.83;4.00;;;;;;;7.93;68.28;101406.46;1759636;79;21134;-65
2022/10/11 06:38:28;;;;;;;7.45;3.75;;;;;;;8.04;68.12;101405.91;1763236;79;21064;-64
2022/10/11 06:40:55;;;;;;;11.53;3.92;;;;;;;8.11;67.86;101401.55;1756402;79;21034;-64
2022/10/11 06:43:21;;;;;;;37.65;8.18;;;;;;;8.21;67.69;101408.94;1762387;80;21690;-64
2022/10/11 06:45:48;;;;;;;9.38;3.75;;;;;;;8.26;67.43;101404.30;1761181;80;21536;-64
2022/10/11 06:48:14;;;;;;;8.70;3.52;;;;;;;8.32;67.28;101399.56;1756555;80;21106;-65
2022/10/11 06:50:41;;;;;;;7.95;3.27;;;;;;;8.44;67.29;101395.91;1725311;82;21153;-65
2022/10/11 06:53:08;;;;;;;7.25;3.08;;;;;;;8.58;66.47;101395.16;1767940;79;21397;-65
2022/10/11 06:55:35;;;;;;;6.62;3.42;;;;;;;8.67;66.11;101392.84;1767637;79;20952;-65
2022/10/11 06:58:01;;;;;;;10.63;3.72;;;;;;;8.77;65.80;101389.72;1761818;80;21516;-65
2022/10/11 07:00:28;;;;;;;8.78;3.25;;;;;;;8.85;65.67;101394.08;1764205;79;21042;-65
2022/10/11 07:02:54;;;;;;;6.53;3.20;;;;;;;8.92;65.41;101391.47;1805046;79;21089;-65
2022/10/11 07:05:21;;;;;;;5.92;3.00;;;;;;;9.00;65.20;101391.89;1762619;79;21082;-65
2022/10/11 07:07:47;;;;;;;5.72;2.60;;;;;;;9.16;65.14;101391.00;1722643;82;21056;-65
2022/10/11 07:10:14;;;;;;;8.80;2.90;;;;;;;9.30;64.46;101392.36;1758871;79;21082;-65
2022/10/11 07:12:44;;;;;;;6.25;2.75;;;;;;;9.38;63.97;101390.58;1753993;80;21539;-65
2022/10/11 07:15:10;;;;;;;5.90;2.55;;;;;;;9.48;63.90;101395.67;1762383;79;21259;-65
2022/10/11 07:17:38;;;;;;;6.25;2.60;;;;;;;9.56;63.51;101391.28;1756784;79;21099;-65
2022/10/11 07:20:07;;;;;;;6.12;2.75;;;;;;;9.63;62.86;101385.58;1757085;79;21599;-63
2022/10/11 07:22:34;;;;;;;7.58;3.00;;;;;;;9.67;62.94;101388.87;1759894;80;21071;-63
2022/10/11 07:25:01;;;;;;;5.30;2.60;;;;;;;9.74;63.09;101383.61;1756649;80;21055;-63
2022/10/11 07:27:27;;;;;;;6.55;2.75;;;;;;;9.86;63.00;101388.11;1761615;79;21214;-63
2022/10/11 07:29:55;;;;;;;6.53;2.83;;;;;;;9.96;62.91;101385.77;1762822;80;21026;-63
2022/10/11 07:32:21;;;;;;;5.40;2.67;;;;;;;10.03;62.62;101377.87;1762912;80;21120;-63
2022/10/11 07:36:47;;;;;;;8.08;3.22;;;;;;;10.12;62.13;101379.11;1790722;79;22620;-60
2022/10/11 07:39:14;;;;;;;6.25;2.40;;;;;;;10.22;61.05;101374.95;1753727;80;21017;-61
2022/10/11 07:41:40;;;;;;;4.72;1.92;;;;;;;10.28;60.43;101382.92;1749823;81;21236;-60
2022/10/11 07:44:07;;;;;;;7.50;3.40;;;;;;;10.30;59.10;101378.88;1751646;80;21026;-61
2022/10/11 07:46:34;;;;;;;6.90;2.90;;;;;;;10.29;59.00;101375.87;1750571;80;21055;-61
2022/10/11 07:49:00;;;;;;;6.83;2.70;;;;;;;10.31;59.53;101369.58;1752352;80;21022;-61
2022/10/11 07:51:27;;;;;;;5.75;2.35;;;;;;;10.33;59.73;101364.26;1754703;81;21493;-60
2022/10/11 07:53:55;;;;;;;7.45;2.80;;;;;;;10.36;59.23;101367.53;1750072;80;22114;-60
2022/10/11 07:56:26;;;;;;;5.40;2.75;;;;;;;10.44;59.54;101371.01;1750591;81;21058;-60
2022/10/11 07:58:58;;;;;;;6.60;2.72;;;;;;;10.58;59.18;101364.86;1742216;81;21532;-60
2022/10/11 08:01:26;;;;;;;7.33;2.75;;;;;;;10.68;58.28;101365.94;1751763;81;21027;-61
2022/10/11 08:03:53;;;;;;;6.97;3.02;;;;;;;10.73;57.30;101366.97;1751278;80;21062;-61
2022/10/11 08:06:21;;;;;;;7.25;3.27;;;;;;;10.81;57.58;101367.77;1755622;80;21136;-61
2022/10/11 08:08:48;;;;;;;8.55;3.25;;;;;;;10.89;56.94;101371.61;1748267;80;21101;-60
2022/10/11 08:11:21;;;;;;;8.33;3.02;;;;;;;10.90;56.54;101368.02;1752752;81;21679;-61
2022/10/11 08:13:49;;;;;;;7.45;3.30;;;;;;;10.92;56.34;101362.17;1750145;80;21860;-60
2022/10/11 08:16:16;;;;;;;6.65;2.98;;;;;;;10.93;56.51;101358.60;1753259;81;21479;-60
2022/10/11 08:18:43;;;;;;;5.70;2.65;;;;;;;10.97;56.13;101356.13;1744908;81;21116;-61
2022/10/11 08:21:11;;;;;;;4.90;2.02;;;;;;;11.00;55.03;101352.45;1752627;81;21057;-61
2022/10/11 08:23:38;;;;;;;7.87;2.35;;;;;;;11.06;54.36;101356.46;1751846;80;21062;-61
2022/10/11 08:26:05;;;;;;;7.78;2.62;;;;;;;11.12;53.41;101354.27;1749617;80;21094;-61
2022/10/11 08:28:31;;;;;;;8.28;3.00;;;;;;;11.18;53.44;101354.80;1750733;80;22398;-60
2022/10/11 08:30:58;;;;;;;6.45;2.25;;;;;;;11.23;52.78;101347.42;1752600;81;21111;-60
2022/10/11 08:33:25;;;;;;;6.75;2.55;;;;;;;11.30;53.07;101352.67;1750723;81;21082;-61
2022/10/11 08:35:52;;;;;;;7.15;3.22;;;;;;;11.38;52.63;101350.81;1746080;81;21077;-61
2022/10/11 08:38:20;;;;;;;6.72;3.08;;;;;;;11.43;52.58;101348.27;1753250;80;21075;-61
2022/10/11 08:40:55;;;;;;;6.28;2.80;;;;;;;11.51;52.72;101345.08;1752765;81;21089;-61
2022/10/11 08:44:04;;;;;;;8.05;2.85;;;;;;;11.59;52.81;101345.40;1750202;80;22213;-61
2022/10/11 08:46:34;;;;;;;7.50;2.92;;;;;;;11.61;52.38;101347.45;1747854;81;21054;-61
2022/10/11 08:49:00;;;;;;;12.45;3.22;;;;;;;11.67;51.73;101344.40;1741364;80;20996;-61
2022/10/11 08:51:34;;;;;;;6.55;3.00;;;;;;;11.69;52.10;101345.61;1738275;81;21007;-61
2022/10/11 08:54:22;;;;;;;6.83;3.40;;;;;;;11.73;51.46;101339.16;1729991;81;21074;-61
2022/10/11 08:56:48;;;;;;;7.97;3.30;;;;;;;11.79;50.94;101336.59;1750480;82;21257;-60
2022/10/11 08:59:29;;;;;;;7.35;3.20;;;;;;;11.80;50.61;101333.85;1741348;81;21485;-60
2022/10/11 09:02:04;;;;;;;5.20;2.47;;;;;;;11.85;51.13;101328.23;1747135;81;21035;-61
2022/10/11 09:04:31;;;;;;;6.33;2.70;;;;;;;11.90;50.55;101323.47;1755085;80;21564;-61
2022/10/11 09:07:27;;;;;;;7.53;3.15;;;;;;;11.95;50.81;101326.66;1735158;81;21070;-61
2022/10/11 09:10:27;;;;;;;7.80;2.98;;;;;;;12.04;50.53;101329.14;1748688;80;20995;-60
2022/10/11 09:13:16;;;;;;;5.65;2.58;;;;;;;12.12;50.25;101326.80;1749176;81;21042;-60
2022/10/11 09:16:04;;;;;;;6.95;2.27;;;;;;;12.19;49.99;101330.69;1727300;81;21097;-61
2022/10/11 09:19:08;;;;;;;5.12;1.82;;;;;;;12.24;50.11;101328.55;1745526;80;21059;-61
2022/10/11 09:22:14;;;;;;;5.25;2.00;;;;;;;12.30;49.26;101324.62;1764639;80;21070;-59
2022/10/11 09:25:12;;;;;;;5.72;2.08;;;;;;;12.35;48.53;101321.16;1745633;80;21171;-61
2022/10/11 09:27:53;;;;;;;5.28;1.72;;;;;;;12.40;48.63;101328.27;1735771;81;21050;-60
2022/10/11 09:30:20;;;;;;;5.12;1.87;;;;;;;12.45;47.97;101324.81;1717329;81;21093;-61
2022/10/11 09:33:10;;;;;;;3.72;1.52;;;;;;;12.51;47.08;101329.28;1756908;80;21011;-61
2022/10/11 09:35:41;;;;;;;7.12;1.77;;;;;;;12.53;46.97;101324.76;1751145;80;21063;-61
2022/10/11 09:38:44;;;;;;;5.15;1.60;;;;;;;12.56;46.57;101318.77;1753385;81;22092;-61
2022/10/11 09:41:36;;;;;;;4.62;1.52;;;;;;;12.65;46.33;101319.88;1752745;81;22195;-60
2022/10/11 09:44:04;;;;;;;3.70;1.40;;;;;;;12.74;45.90;101311.30;1747252;80;21574;-59
2022/10/11 09:46:38;;;;;;;4.83;1.60;;;;;;;12.82;45.43;101312.02;1722450;81;21141;-60
2022/10/11 09:49:13;;;;;;;4.77;1.80;;;;;;;12.86;44.77;101301.61;1753033;80;21157;-59
2022/10/11 09:51:42;;;;;;;5.65;1.60;;;;;;;12.92;44.96;101312.19;1755656;81;21114;-60
2022/10/11 09:54:10;;;;;;;6.60;1.87;;;;;;;12.97;45.35;101305.58;1740129;80;21513;-60
2022/10/11 09:56:42;;;;;;;7.40;1.72;;;;;;;13.03;44.51;101303.44;1751718;81;21589;-60
2022/10/11 09:59:33;;;;;;;3.92;1.45;;;;;;;13.09;44.59;101300.34;1733823;80;21054;-60
2022/10/11 10:02:21;;;;;;;5.15;1.25;;;;;;;13.14;44.05;101295.05;1732257;82;21031;-59
2022/10/11 10:05:13;;;;;;;4.42;1.25;;;;;;;13.17;43.65;101289.54;1740454;82;21494;-60
2022/10/11 10:07:40;;;;;;;6.00;1.50;;;;;;;13.23;44.07;101296.63;1740321;80;21652;-61
2022/10/11 10:10:31;;;;;;;7.20;1.40;;;;;;;13.29;43.96;101286.92;1719245;82;21114;-61
2022/10/11 10:13:00;;;;;;;4.90;1.80;;;;;;;13.37;44.47;101289.84;1678206;83;21630;-60
2022/10/11 10:15:35;;;;;;;3.92;1.60;;;;;;;13.43;44.57;101283.23;1727796;80;21045;-59
2022/10/11 10:18:05;;;;;;;5.62;1.77;;;;;;;13.50;43.84;101275.17;1720631;80;21548;-59
2022/10/11 10:20:33;;;;;;;4.92;1.50;;;;;;;13.54;44.09;101272.67;1715568;82;21577;-59
2022/10/11 10:23:08;;;;;;;4.22;1.65;;;;;;;13.60;43.89;101279.27;1730783;80;21012;-60
2022/10/11 10:25:37;;;;;;;4.70;2.12;;;;;;;13.66;44.01;101266.89;1736278;82;21537;-59
2022/10/11 10:28:18;;;;;;;4.03;1.40;;;;;;;13.71;44.08;101267.37;1724841;80;21126;-58
2022/10/11 10:30:55;;;;;;;3.98;1.42;;;;;;;13.77;44.12;101264.25;1740781;81;21473;-59
2022/10/11 10:33:28;;;;;;;5.83;1.60;;;;;;;13.85;43.32;101268.45;1730546;81;21031;-59
2022/10/11 10:36:00;;;;;;;3.83;1.50;;;;;;;13.90;42.82;101261.44;1717802;82;20943;-59
2022/10/11 10:38:34;;;;;;;3.40;1.27;;;;;;;13.92;42.45;101256.89;1651700;85;21090;-59
2022/10/11 10:41:02;;;;;;;5.37;1.45;;;;;;;13.97;42.80;101255.17;1741783;82;21018;-59
2022/10/11 10:43:35;;;;;;;5.42;1.50;;;;;;;14.01;42.62;101248.69;1728179;80;21713;-58
2022/10/11 10:46:27;;;;;;;5.42;1.70;;;;;;;14.05;41.87;101252.27;1738406;82;21486;-59
2022/10/11 10:49:03;;;;;;;5.97;1.45;;;;;;;14.09;41.91;101253.72;1722707;82;21093;-59
2022/10/11 10:52:04;;;;;;;6.30;1.80;;;;;;;14.13;42.13;101251.16;1733250;82;21063;-60
2022/10/11 10:54:53;;;;;;;5.85;1.60;;;;;;;14.22;42.61;101254.89;1734274;80;21055;-59
2022/10/11 10:57:44;;;;;;;3.35;1.42;;;;;;;14.30;42.44;101242.33;1740817;82;22243;-60
2022/10/11 11:00:20;;;;;;;5.72;1.62;;;;;;;14.34;40.78;101241.13;1733732;82;21080;-62
2022/10/11 11:03:00;;;;;;;3.92;1.77;;;;;;;14.38;41.31;101235.09;1736784;80;21087;-60
2022/10/11 11:05:51;;;;;;;5.97;1.70;;;;;;;14.45;41.81;101235.77;1731914;82;21522;-60
2022/10/11 11:08:57;;;;;;;4.45;1.40;;;;;;;14.52;41.27;101230.80;1722079;82;21079;-60
2022/10/11 11:11:51;;;;;;;4.72;1.60;;;;;;;14.59;41.02;101226.73;1713297;82;21124;-59
2022/10/11 11:14:46;;;;;;;5.37;1.45;;;;;;;14.65;40.45;101223.55;1737355;80;21141;-60
2022/10/11 11:17:34;;;;;;;4.58;1.70;;;;;;;14.71;40.87;101227.97;1735028;82;21031;-61
2022/10/11 11:20:27;;;;;;;6.47;1.70;;;;;;;14.78;40.83;101221.20;1737358;82;21052;-61
2022/10/11 11:23:22;;;;;;;4.45;1.67;;;;;;;14.84;40.70;101220.20;1734076;80;21600;-59
2022/10/11 11:26:03;;;;;;;5.80;1.55;;;;;;;14.95;40.59;101221.09;1729257;82;21110;-60
2022/10/11 11:28:57;;;;;;;4.55;2.02;;;;;;;15.03;40.52;101218.14;1733556;80;21011;-60
2022/10/11 11:31:51;;;;;;;7.53;1.85;;;;;;;15.11;40.67;101216.63;1729361;80;21130;-60
2022/10/11 11:34:37;;;;;;;4.53;1.80;;;;;;;15.19;41.09;101216.31;1653801;85;21103;-61
2022/10/11 11:37:10;;;;;;;5.53;1.60;;;;;;;15.27;40.12;101206.88;1725019;80;21061;-59
2022/10/11 11:39:48;;;;;;;5.03;2.08;;;;;;;15.33;40.06;101204.54;1710697;81;21851;-60
2022/10/11 11:42:37;;;;;;;4.55;1.95;;;;;;;15.38;39.40;101199.67;1753990;81;21004;-60
2022/10/11 11:45:19;;;;;;;4.95;1.72;;;;;;;15.41;39.12;101195.40;1738410;80;21046;-60
2022/10/11 11:47:53;;;;;;;4.50;1.85;;;;;;;15.45;39.47;101188.50;1750157;80;20987;-61
2022/10/11 11:50:22;;;;;;;4.25;1.90;;;;;;;15.52;39.22;101192.31;1753353;81;21109;-60
2022/10/11 11:52:57;;;;;;;5.60;2.00;;;;;;;15.60;38.92;101191.12;1755940;81;21184;-60
2022/10/11 11:55:52;;;;;;;4.87;1.80;;;;;;;15.68;37.98;101187.80;1741088;80;21106;-60
2022/10/11 11:58:27;;;;;;;5.67;1.95;;;;;;;15.75;38.12;101191.14;1751714;81;21035;-60
2022/10/11 12:01:08;;;;;;;6.25;1.87;;;;;;;15.85;38.49;101188.98;1726879;81;21083;-61